Current Weather

DuPage County

West Chicago, Illinois (KDPA)

Report from: Friday, April 19, 2024 3:52 AM CDT
Current time: Friday, April 19, 2024 4:10 AM CDT

Nearby weather – Weather history – Daily summaries
Weather forecast

Temperature6.1°C (43.0°F)
Wind chill2.2°C (36.0°F)
Dew point2.8°C (37.0°F)
Winds 12 kts (6.2 m/s, 13.8 mph) Northwest (310°)
Visibility10 mi. (16.1 km)
Clouds Sky clear
Altimeter30.05 in.Hg (1018 mB)
Relative humidity79 %
Density altitude-1,120 ft. (-341 m)
Sea-level pressure101.8 kPa (1018 mB, 30.06 in.Hg)
Remarks System requires maintenance
Automated weather observing station with precipitation discriminator
Pressure rising more quickly
Flight conditions Visual Meteorological Conditions
Raw dataKDPA 190852Z 31012KT 10SM CLR 06/03 A3005 RMK AO2 SLP179 T00610028 53018 $
An error has occurred. This application may no longer respond until reloaded. Reload 🗙